sensor_id;sensor_type;location;lat;lon;timestamp;pressure;altitude;pressure_sealevel;temperature;humidity
31357;BME280;60001;48.404;11.738;2022-12-04T00:01:31;95889.19;;;2.02;91.10
31357;BME280;60001;48.404;11.738;2022-12-04T00:03:03;95894.00;;;1.99;90.92
31357;BME280;60001;48.404;11.738;2022-12-04T00:04:34;95886.41;;;1.90;90.64
31357;BME280;60001;48.404;11.738;2022-12-04T00:06:07;95888.22;;;1.90;90.92
31357;BME280;60001;48.404;11.738;2022-12-04T00:07:39;95895.84;;;1.85;91.61
31357;BME280;60001;48.404;11.738;2022-12-04T00:09:13;95899.03;;;1.87;91.27
31357;BME280;60001;48.404;11.738;2022-12-04T00:10:44;95905.66;;;1.89;91.33
31357;BME280;60001;48.404;11.738;2022-12-04T00:12:16;95901.81;;;1.92;91.14
31357;BME280;60001;48.404;11.738;2022-12-04T00:13:48;95897.19;;;1.94;91.19
31357;BME280;60001;48.404;11.738;2022-12-04T00:15:20;95894.03;;;1.85;91.28
31357;BME280;60001;48.404;11.738;2022-12-04T00:16:52;95894.19;;;1.97;91.49
31357;BME280;60001;48.404;11.738;2022-12-04T00:18:24;95895.22;;;1.96;91.25
31357;BME280;60001;48.404;11.738;2022-12-04T00:19:56;95894.19;;;1.97;91.70
31357;BME280;60001;48.404;11.738;2022-12-04T00:21:28;95889.38;;;2.01;91.43
31357;BME280;60001;48.404;11.738;2022-12-04T00:22:59;95883.97;;;2.02;91.49
31357;BME280;60001;48.404;11.738;2022-12-04T00:24:33;95880.16;;;2.05;90.97
31357;BME280;60001;48.404;11.738;2022-12-04T00:26:07;95888.16;;;2.03;91.07
31357;BME280;60001;48.404;11.738;2022-12-04T00:27:39;95887.00;;;1.92;91.32
31357;BME280;60001;48.404;11.738;2022-12-04T00:29:11;95891.19;;;1.93;90.94
31357;BME280;60001;48.404;11.738;2022-12-04T00:30:44;95888.44;;;1.88;91.46
31357;BME280;60001;48.404;11.738;2022-12-04T00:32:16;95897.19;;;1.94;91.08
31357;BME280;60001;48.404;11.738;2022-12-04T00:33:48;95899.84;;;1.87;91.27
31357;BME280;60001;48.404;11.738;2022-12-04T00:35:19;95896.25;;;1.88;91.29
31357;BME280;60001;48.404;11.738;2022-12-04T00:36:51;95904.84;;;1.89;91.00
31357;BME280;60001;48.404;11.738;2022-12-04T00:38:23;95896.28;;;1.82;91.71
31357;BME280;60001;48.404;11.738;2022-12-04T00:39:55;95895.84;;;1.85;91.71
31357;BME280;60001;48.404;11.738;2022-12-04T00:41:29;95891.03;;;1.88;91.33
31357;BME280;60001;48.404;11.738;2022-12-04T00:43:02;95887.44;;;1.89;91.90
31357;BME280;60001;48.404;11.738;2022-12-04T00:44:34;95901.03;;;1.91;91.05
31357;BME280;60001;48.404;11.738;2022-12-04T00:46:05;95888.41;;;1.95;91.30
31357;BME280;60001;48.404;11.738;2022-12-04T00:47:36;95891.59;;;1.97;91.25
31357;BME280;60001;48.404;11.738;2022-12-04T00:49:08;95891.81;;;1.96;91.68
31357;BME280;60001;48.404;11.738;2022-12-04T00:50:40;95887.81;;;1.93;91.49
31357;BME280;60001;48.404;11.738;2022-12-04T00:52:12;95888.19;;;1.97;91.73
31357;BME280;60001;48.404;11.738;2022-12-04T00:53:44;95883.38;;;1.93;91.55
31357;BME280;60001;48.404;11.738;2022-12-04T00:55:17;95894.56;;;2.01;91.43
31357;BME280;60001;48.404;11.738;2022-12-04T00:56:49;95885.97;;;2.00;91.94
31357;BME280;60001;48.404;11.738;2022-12-04T00:58:21;95893.38;;;2.03;91.63
31357;BME280;60001;48.404;11.738;2022-12-04T00:59:53;95894.75;;;2.06;91.29
31357;BME280;60001;48.404;11.738;2022-12-04T01:01:25;95893.59;;;2.02;91.40
31357;BME280;60001;48.404;11.738;2022-12-04T01:02:56;95894.19;;;2.04;91.77
31357;BME280;60001;48.404;11.738;2022-12-04T01:04:27;95887.78;;;2.00;91.92
31357;BME280;60001;48.404;11.738;2022-12-04T01:06:01;95902.19;;;2.02;91.17
31357;BME280;60001;48.404;11.738;2022-12-04T01:07:32;95906.63;;;2.02;91.36
31357;BME280;60001;48.404;11.738;2022-12-04T01:09:04;95909.66;;;1.85;91.94
31357;BME280;60001;48.404;11.738;2022-12-04T01:10:40;95908.28;;;1.83;92.02
31357;BME280;60001;48.404;11.738;2022-12-04T01:12:12;95897.66;;;1.84;92.16
31357;BME280;60001;48.404;11.738;2022-12-04T01:13:44;95890.66;;;1.85;92.51
31357;BME280;60001;48.404;11.738;2022-12-04T01:15:15;95907.44;;;1.96;92.43
31357;BME280;60001;48.404;11.738;2022-12-04T01:16:47;95895.28;;;1.76;92.63
31357;BME280;60001;48.404;11.738;2022-12-04T01:18:18;95908.47;;;1.88;92.41
31357;BME280;60001;48.404;11.738;2022-12-04T01:19:49;95901.44;;;1.95;92.14
31357;BME280;60001;48.404;11.738;2022-12-04T01:21:21;95911.41;;;1.98;92.13
31357;BME280;60001;48.404;11.738;2022-12-04T01:22:52;95902.00;;;1.97;92.35
31357;BME280;60001;48.404;11.738;2022-12-04T01:24:23;95901.81;;;1.99;92.42
31357;BME280;60001;48.404;11.738;2022-12-04T01:25:57;95903.19;;;2.01;92.24
31357;BME280;60001;48.404;11.738;2022-12-04T01:27:29;95905.00;;;2.01;92.41
31357;BME280;60001;48.404;11.738;2022-12-04T01:29:01;95906.19;;;2.05;92.50
31357;BME280;60001;48.404;11.738;2022-12-04T01:30:34;95917.97;;;2.07;92.06
31357;BME280;60001;48.404;11.738;2022-12-04T01:32:05;95909.97;;;2.09;92.12
31357;BME280;60001;48.404;11.738;2022-12-04T01:33:37;95906.38;;;2.10;91.41
31357;BME280;60001;48.404;11.738;2022-12-04T01:35:09;95904.97;;;2.07;92.16
31357;BME280;60001;48.404;11.738;2022-12-04T01:36:41;95909.78;;;2.10;91.71
31357;BME280;60001;48.404;11.738;2022-12-04T01:38:12;95898.38;;;2.05;92.01
31357;BME280;60001;48.404;11.738;2022-12-04T01:39:43;95897.16;;;2.07;91.80
31357;BME280;60001;48.404;11.738;2022-12-04T01:41:20;95904.78;;;2.09;91.98
31357;BME280;60001;48.404;11.738;2022-12-04T01:42:52;95900.16;;;2.11;91.92
31357;BME280;60001;48.404;11.738;2022-12-04T01:44:25;95882.75;;;2.05;92.37
31357;BME280;60001;48.404;11.738;2022-12-04T01:45:58;95892.72;;;2.08;92.24
31357;BME280;60001;48.404;11.738;2022-12-04T01:47:30;95889.16;;;2.09;92.74
31357;BME280;60001;48.404;11.738;2022-12-04T01:49:04;95887.34;;;2.09;91.81
31357;BME280;60001;48.404;11.738;2022-12-04T01:50:39;95891.69;;;2.15;92.37
31357;BME280;60001;48.404;11.738;2022-12-04T01:52:14;95890.50;;;2.18;92.01
31357;BME280;60001;48.404;11.738;2022-12-04T01:53:53;95885.66;;;2.22;92.09
31357;BME280;60001;48.404;11.738;2022-12-04T01:55:25;95880.44;;;2.22;92.32
31357;BME280;60001;48.404;11.738;2022-12-04T01:57:03;95879.06;;;2.19;92.66
31357;BME280;60001;48.404;11.738;2022-12-04T01:58:42;95888.66;;;2.25;92.41
31357;BME280;60001;48.404;11.738;2022-12-04T02:00:15;95884.66;;;2.23;91.72
31357;BME280;60001;48.404;11.738;2022-12-04T02:01:53;95887.28;;;2.23;92.55
31357;BME280;60001;48.404;11.738;2022-12-04T02:03:27;95891.25;;;2.25;91.97
31357;BME280;60001;48.404;11.738;2022-12-04T02:04:59;95896.88;;;2.22;92.13
31357;BME280;60001;48.404;11.738;2022-12-04T02:06:32;95895.47;;;2.26;92.34
31357;BME280;60001;48.404;11.738;2022-12-04T02:08:04;95894.03;;;2.30;92.40
31357;BME280;60001;48.404;11.738;2022-12-04T02:09:37;95883.22;;;2.27;92.43
31357;BME280;60001;48.404;11.738;2022-12-04T02:11:22;95885.44;;;2.30;92.04
31357;BME280;60001;48.404;11.738;2022-12-04T02:13:05;95886.63;;;2.27;92.45
31357;BME280;60001;48.404;11.738;2022-12-04T02:14:46;95892.81;;;2.33;91.79
31357;BME280;60001;48.404;11.738;2022-12-04T02:16:29;95887.22;;;2.29;91.99
31357;BME280;60001;48.404;11.738;2022-12-04T02:18:08;95871.56;;;2.29;92.19
31357;BME280;60001;48.404;11.738;2022-12-04T02:20:13;95863.56;;;2.31;91.67
31357;BME280;60001;48.404;11.738;2022-12-04T02:21:53;95863.00;;;2.22;92.18
31357;BME280;60001;48.404;11.738;2022-12-04T02:23:55;95864.81;;;2.22;92.48
31357;BME280;60001;48.404;11.738;2022-12-04T02:25:43;95855.59;;;2.26;92.49
31357;BME280;60001;48.404;11.738;2022-12-04T02:29:14;95846.97;;;2.25;93.03
31357;BME280;60001;48.404;11.738;2022-12-04T02:30:56;95843.34;;;2.26;92.90
31357;BME280;60001;48.404;11.738;2022-12-04T02:32:37;95847.16;;;2.30;92.61
31357;BME280;60001;48.404;11.738;2022-12-04T02:34:16;95833.50;;;2.28;92.87
31357;BME280;60001;48.404;11.738;2022-12-04T02:35:55;95842.09;;;2.35;92.75
31357;BME280;60001;48.404;11.738;2022-12-04T02:37:34;95841.47;;;2.40;92.72
31357;BME280;60001;48.404;11.738;2022-12-04T02:39:12;95849.06;;;2.41;92.46
31357;BME280;60001;48.404;11.738;2022-12-04T02:40:53;95852.69;;;2.40;92.43
31357;BME280;60001;48.404;11.738;2022-12-04T02:42:32;95857.50;;;2.43;92.45
31357;BME280;60001;48.404;11.738;2022-12-04T02:44:13;95853.13;;;2.37;92.63
31357;BME280;60001;48.404;11.738;2022-12-04T02:45:50;95852.91;;;2.39;92.33
31357;BME280;60001;48.404;11.738;2022-12-04T02:47:27;95853.47;;;2.41;92.86
31357;BME280;60001;48.404;11.738;2022-12-04T02:49:03;95849.50;;;2.38;92.65
31357;BME280;60001;48.404;11.738;2022-12-04T02:50:39;95850.28;;;2.39;92.33
31357;BME280;60001;48.404;11.738;2022-12-04T02:52:17;95836.03;;;2.41;92.82
31357;BME280;60001;48.404;11.738;2022-12-04T02:53:56;95822.78;;;2.43;92.89
31357;BME280;60001;48.404;11.738;2022-12-04T02:55:34;95815.78;;;2.43;92.52
31357;BME280;60001;48.404;11.738;2022-12-04T02:57:14;95819.78;;;2.46;92.18
31357;BME280;60001;48.404;11.738;2022-12-04T02:58:49;95823.97;;;2.47;91.98
31357;BME280;60001;48.404;11.738;2022-12-04T03:00:24;95817.75;;;2.48;92.47
31357;BME280;60001;48.404;11.738;2022-12-04T03:02:03;95828.16;;;2.48;92.24
31357;BME280;60001;48.404;11.738;2022-12-04T03:03:38;95820.94;;;2.50;92.63
31357;BME280;60001;48.404;11.738;2022-12-04T03:05:15;95827.81;;;2.44;92.73
31357;BME280;60001;48.404;11.738;2022-12-04T03:06:51;95818.22;;;2.38;92.82
31357;BME280;60001;48.404;11.738;2022-12-04T03:08:29;95817.38;;;2.44;92.64
31357;BME280;60001;48.404;11.738;2022-12-04T03:10:09;95812.38;;;2.43;92.98
31357;BME280;60001;48.404;11.738;2022-12-04T03:11:49;95821.38;;;2.47;92.89
31357;BME280;60001;48.404;11.738;2022-12-04T03:13:28;95806.34;;;2.42;92.76
31357;BME280;60001;48.404;11.738;2022-12-04T03:15:06;95808.97;;;2.42;92.97
31357;BME280;60001;48.404;11.738;2022-12-04T03:16:43;95809.34;;;2.46;92.46
31357;BME280;60001;48.404;11.738;2022-12-04T03:18:19;95804.13;;;2.46;92.51
31357;BME280;60001;48.404;11.738;2022-12-04T03:19:57;95803.69;;;2.49;93.08
31357;BME280;60001;48.404;11.738;2022-12-04T03:21:34;95811.31;;;2.51;92.72
31357;BME280;60001;48.404;11.738;2022-12-04T03:23:12;95808.34;;;2.47;93.28
31357;BME280;60001;48.404;11.738;2022-12-04T03:24:50;95811.31;;;2.51;93.29
31357;BME280;60001;48.404;11.738;2022-12-04T03:26:27;95816.09;;;2.54;92.93
31357;BME280;60001;48.404;11.738;2022-12-04T03:28:04;95808.06;;;2.55;92.95
31357;BME280;60001;48.404;11.738;2022-12-04T03:29:43;95810.44;;;2.57;92.89
31357;BME280;60001;48.404;11.738;2022-12-04T03:31:23;95810.44;;;2.57;93.03
31357;BME280;60001;48.404;11.738;2022-12-04T03:33:07;95817.69;;;2.55;92.72
31357;BME280;60001;48.404;11.738;2022-12-04T03:34:52;95820.53;;;2.53;93.13
31357;BME280;60001;48.404;11.738;2022-12-04T03:36:31;95818.94;;;2.52;93.26
31357;BME280;60001;48.404;11.738;2022-12-04T03:38:15;95820.31;;;2.55;92.56
31357;BME280;60001;48.404;11.738;2022-12-04T03:39:56;95818.13;;;2.52;92.70
31357;BME280;60001;48.404;11.738;2022-12-04T03:41:37;95821.31;;;2.54;92.95
31357;BME280;60001;48.404;11.738;2022-12-04T03:43:19;95822.34;;;2.53;93.64
31357;BME280;60001;48.404;11.738;2022-12-04T03:45:01;95823.69;;;2.55;93.67
31357;BME280;60001;48.404;11.738;2022-12-04T03:46:38;95827.53;;;2.53;93.48
31357;BME280;60001;48.404;11.738;2022-12-04T03:48:18;95819.78;;;2.46;93.05
31357;BME280;60001;48.404;11.738;2022-12-04T03:50:00;95827.16;;;2.49;93.41
31357;BME280;60001;48.404;11.738;2022-12-04T03:51:37;95824.97;;;2.46;93.40
31357;BME280;60001;48.404;11.738;2022-12-04T03:53:16;95832.84;;;2.39;93.68
31357;BME280;60001;48.404;11.738;2022-12-04T03:54:53;95828.22;;;2.41;93.82
31357;BME280;60001;48.404;11.738;2022-12-04T03:56:32;95822.00;;;2.42;94.02
31357;BME280;60001;48.404;11.738;2022-12-04T03:58:11;95816.38;;;2.45;93.39
31357;BME280;60001;48.404;11.738;2022-12-04T03:59:50;95825.16;;;2.51;93.77
31357;BME280;60001;48.404;11.738;2022-12-04T04:01:29;95827.53;;;2.53;93.44
31357;BME280;60001;48.404;11.738;2022-12-04T04:03:09;95814.50;;;2.53;93.72
31357;BME280;60001;48.404;11.738;2022-12-04T04:04:48;95823.47;;;2.57;93.49
31357;BME280;60001;48.404;11.738;2022-12-04T04:06:26;95823.88;;;2.60;93.88
31357;BME280;60001;48.404;11.738;2022-12-04T04:08:01;95822.63;;;2.63;93.79
31357;BME280;60001;48.404;11.738;2022-12-04T04:09:53;95822.22;;;2.66;93.50
31357;BME280;60001;48.404;11.738;2022-12-04T04:11:33;95813.16;;;2.68;93.35
31357;BME280;60001;48.404;11.738;2022-12-04T04:13:06;95806.94;;;2.69;93.38
31357;BME280;60001;48.404;11.738;2022-12-04T04:15:00;95800.72;;;2.70;93.18
31357;BME280;60001;48.404;11.738;2022-12-04T04:16:57;95800.19;;;2.62;93.55
31357;BME280;60001;48.404;11.738;2022-12-04T04:18:50;95797.97;;;2.65;93.11
31357;BME280;60001;48.404;11.738;2022-12-04T04:20:45;95803.53;;;2.69;93.63
31357;BME280;60001;48.404;11.738;2022-12-04T04:22:37;95798.50;;;2.74;93.46
31357;BME280;60001;48.404;11.738;2022-12-04T04:24:33;95795.44;;;2.77;93.50
31357;BME280;60001;48.404;11.738;2022-12-04T04:26:08;95797.84;;;2.79;93.55
31357;BME280;60001;48.404;11.738;2022-12-04T04:27:49;95789.66;;;2.75;92.95
31357;BME280;60001;48.404;11.738;2022-12-04T04:29:21;95793.84;;;2.76;93.32
31357;BME280;60001;48.404;11.738;2022-12-04T04:31:05;95788.63;;;2.76;92.76
31357;BME280;60001;48.404;11.738;2022-12-04T04:32:43;95787.84;;;2.75;92.98
31357;BME280;60001;48.404;11.738;2022-12-04T04:34:19;95789.44;;;2.77;92.83
31357;BME280;60001;48.404;11.738;2022-12-04T04:36:01;95785.47;;;2.74;93.57
31357;BME280;60001;48.404;11.738;2022-12-04T04:37:49;95797.47;;;2.75;93.09
31357;BME280;60001;48.404;11.738;2022-12-04T04:39:29;95792.03;;;2.77;92.87
31357;BME280;60001;48.404;11.738;2022-12-04T04:41:10;95791.03;;;2.78;93.06
31357;BME280;60001;48.404;11.738;2022-12-04T04:42:53;95794.22;;;2.80;93.38
31357;BME280;60001;48.404;11.738;2022-12-04T04:44:37;95794.00;;;2.81;92.81
31357;BME280;60001;48.404;11.738;2022-12-04T04:46:17;95789.81;;;2.80;93.13
31357;BME280;60001;48.404;11.738;2022-12-04T04:47:56;95780.66;;;2.71;93.58
31357;BME280;60001;48.404;11.738;2022-12-04T04:49:33;95790.22;;;2.77;92.91
31357;BME280;60001;48.404;11.738;2022-12-04T04:51:09;95789.22;;;2.78;92.90
31357;BME280;60001;48.404;11.738;2022-12-04T04:52:45;95789.44;;;2.77;93.21
31357;BME280;60001;48.404;11.738;2022-12-04T04:54:19;95789.44;;;2.77;93.68
31357;BME280;60001;48.404;11.738;2022-12-04T04:55:52;95788.63;;;2.76;93.01
31357;BME280;60001;48.404;11.738;2022-12-04T04:57:26;95772.09;;;2.64;93.21
31357;BME280;60001;48.404;11.738;2022-12-04T04:58:58;95801.66;;;2.76;93.24
31357;BME280;60001;48.404;11.738;2022-12-04T05:00:29;95793.84;;;2.76;93.45
31357;BME280;60001;48.404;11.738;2022-12-04T05:02:01;95792.03;;;2.77;93.08
31357;BME280;60001;48.404;11.738;2022-12-04T05:03:34;95793.06;;;2.75;93.37
31357;BME280;60001;48.404;11.738;2022-12-04T05:05:06;95788.06;;;2.74;93.95
31357;BME280;60001;48.404;11.738;2022-12-04T05:06:39;95797.69;;;2.73;93.27
31357;BME280;60001;48.404;11.738;2022-12-04T05:08:11;95804.50;;;2.74;93.31
31357;BME280;60001;48.404;11.738;2022-12-04T05:09:43;95798.28;;;2.75;93.05
31357;BME280;60001;48.404;11.738;2022-12-04T05:11:15;95804.06;;;2.78;93.11
31357;BME280;60001;48.404;11.738;2022-12-04T05:12:47;95801.44;;;2.78;93.46
31357;BME280;60001;48.404;11.738;2022-12-04T05:14:18;95800.25;;;2.80;93.76
31357;BME280;60001;48.404;11.738;2022-12-04T05:15:58;95793.00;;;2.82;93.22
31357;BME280;60001;48.404;11.738;2022-12-04T05:17:29;95790.38;;;2.82;93.15
31357;BME280;60001;48.404;11.738;2022-12-04T05:19:00;95791.41;;;2.81;93.47
31357;BME280;60001;48.404;11.738;2022-12-04T05:20:50;95799.81;;;2.83;93.07
31357;BME280;60001;48.404;11.738;2022-12-04T05:22:25;95799.00;;;2.83;93.16
31357;BME280;60001;48.404;11.738;2022-12-04T05:23:56;95805.69;;;2.79;93.72
31357;BME280;60001;48.404;11.738;2022-12-04T05:25:28;95799.44;;;2.80;93.57
31357;BME280;60001;48.404;11.738;2022-12-04T05:27:00;95803.47;;;2.75;93.96
31357;BME280;60001;48.404;11.738;2022-12-04T05:28:31;95808.28;;;2.79;93.41
31357;BME280;60001;48.404;11.738;2022-12-04T05:30:04;95810.28;;;2.77;93.58
31357;BME280;60001;48.404;11.738;2022-12-04T05:31:36;95802.06;;;2.80;93.80
31357;BME280;60001;48.404;11.738;2022-12-04T05:33:09;95786.97;;;2.82;94.11
31357;BME280;60001;48.404;11.738;2022-12-04T05:34:41;95797.41;;;2.82;93.95
31357;BME280;60001;48.404;11.738;2022-12-04T05:36:13;95793.44;;;2.79;93.54
31357;BME280;60001;48.404;11.738;2022-12-04T05:37:46;95797.41;;;2.82;93.66
31357;BME280;60001;48.404;11.738;2022-12-04T05:39:18;95794.81;;;2.82;93.41
31357;BME280;60001;48.404;11.738;2022-12-04T05:40:49;95794.81;;;2.82;93.54
31357;BME280;60001;48.404;11.738;2022-12-04T05:42:21;95793.78;;;2.83;93.45
31357;BME280;60001;48.404;11.738;2022-12-04T05:43:52;95796.19;;;2.84;93.58
31357;BME280;60001;48.404;11.738;2022-12-04T05:45:23;95785.97;;;2.83;93.30
31357;BME280;60001;48.404;11.738;2022-12-04T05:46:55;95789.75;;;2.87;93.30
31357;BME280;60001;48.404;11.738;2022-12-04T05:48:27;95785.34;;;2.87;93.72
31357;BME280;60001;48.404;11.738;2022-12-04T05:49:59;95774.09;;;2.87;93.43
31357;BME280;60001;48.404;11.738;2022-12-04T05:51:30;95782.72;;;2.87;94.01
31357;BME280;60001;48.404;11.738;2022-12-04T05:53:03;95786.13;;;2.88;93.89
31357;BME280;60001;48.404;11.738;2022-12-04T05:54:35;95790.09;;;2.90;93.83
31357;BME280;60001;48.404;11.738;2022-12-04T05:56:07;95786.69;;;2.90;94.14
31357;BME280;60001;48.404;11.738;2022-12-04T05:57:38;95785.91;;;2.89;94.05
31357;BME280;60001;48.404;11.738;2022-12-04T05:59:10;95791.69;;;2.91;93.59
31357;BME280;60001;48.404;11.738;2022-12-04T06:00:40;95790.72;;;2.92;93.96
31357;BME280;60001;48.404;11.738;2022-12-04T06:02:12;95797.50;;;2.93;93.89
31357;BME280;60001;48.404;11.738;2022-12-04T06:03:44;95805.53;;;2.92;93.72
31357;BME280;60001;48.404;11.738;2022-12-04T06:05:15;95808.97;;;2.92;93.64
31357;BME280;60001;48.404;11.738;2022-12-04T06:06:47;95812.78;;;2.90;93.97
31357;BME280;60001;48.404;11.738;2022-12-04T06:08:20;95808.34;;;2.90;93.30
31357;BME280;60001;48.404;11.738;2022-12-04T06:09:54;95811.19;;;2.89;94.00
31357;BME280;60001;48.404;11.738;2022-12-04T06:11:28;95799.38;;;2.86;93.85
31357;BME280;60001;48.404;11.738;2022-12-04T06:12:59;95807.34;;;2.91;94.25
31357;BME280;60001;48.404;11.738;2022-12-04T06:14:31;95800.13;;;2.93;94.35
31357;BME280;60001;48.404;11.738;2022-12-04T06:16:03;95799.69;;;2.96;93.81
31357;BME280;60001;48.404;11.738;2022-12-04T06:17:34;95794.25;;;2.98;93.47
31357;BME280;60001;48.404;11.738;2022-12-04T06:19:09;95793.88;;;2.94;93.27
31357;BME280;60001;48.404;11.738;2022-12-04T06:20:41;95784.03;;;2.96;93.37
31357;BME280;60001;48.404;11.738;2022-12-04T06:22:13;95798.09;;;2.95;93.59
31357;BME280;60001;48.404;11.738;2022-12-04T06:23:46;95794.69;;;2.95;93.66
31357;BME280;60001;48.404;11.738;2022-12-04T06:25:18;95791.84;;;2.96;93.65
31357;BME280;60001;48.404;11.738;2022-12-04T06:26:54;95796.84;;;2.98;93.48
31357;BME280;60001;48.404;11.738;2022-12-04T06:28:26;95800.84;;;3.00;94.17
31357;BME280;60001;48.404;11.738;2022-12-04T06:29:57;95796.44;;;3.01;93.82
31357;BME280;60001;48.404;11.738;2022-12-04T06:31:29;95794.63;;;3.01;93.59
31357;BME280;60001;48.404;11.738;2022-12-04T06:33:02;95792.00;;;3.01;93.29
31357;BME280;60001;48.404;11.738;2022-12-04T06:34:33;95800.63;;;3.02;93.73
31357;BME280;60001;48.404;11.738;2022-12-04T06:36:08;95797.81;;;3.03;93.72
31357;BME280;60001;48.404;11.738;2022-12-04T06:37:41;95798.59;;;3.04;93.78
31357;BME280;60001;48.404;11.738;2022-12-04T06:39:14;95795.41;;;3.02;93.50
31357;BME280;60001;48.404;11.738;2022-12-04T06:40:46;95790.41;;;3.00;93.77
31357;BME280;60001;48.404;11.738;2022-12-04T06:42:16;95792.00;;;3.01;93.52
31357;BME280;60001;48.404;11.738;2022-12-04T06:43:48;95793.66;;;2.96;94.38
31357;BME280;60001;48.404;11.738;2022-12-04T06:45:21;95796.66;;;2.99;94.42
31357;BME280;60001;48.404;11.738;2022-12-04T06:46:52;95792.66;;;2.97;94.10
31357;BME280;60001;48.404;11.738;2022-12-04T06:48:24;95788.22;;;2.97;94.04
31357;BME280;60001;48.404;11.738;2022-12-04T06:49:57;95777.66;;;2.92;94.12
31357;BME280;60001;48.404;11.738;2022-12-04T06:51:31;95781.56;;;2.83;93.92
31357;BME280;60001;48.404;11.738;2022-12-04T06:53:02;95783.00;;;2.79;94.53
31357;BME280;60001;48.404;11.738;2022-12-04T06:54:35;95788.16;;;2.86;94.28
31357;BME280;60001;48.404;11.738;2022-12-04T06:56:08;95783.59;;;2.81;95.08
31357;BME280;60001;48.404;11.738;2022-12-04T06:57:41;95781.78;;;2.82;94.98
31357;BME280;60001;48.404;11.738;2022-12-04T06:59:12;95786.34;;;2.86;95.04
31357;BME280;60001;48.404;11.738;2022-12-04T07:00:44;95784.09;;;2.90;94.74
31357;BME280;60001;48.404;11.738;2022-12-04T07:02:16;95791.13;;;2.89;95.00
31357;BME280;60001;48.404;11.738;2022-12-04T07:03:48;95795.09;;;2.92;94.73
31357;BME280;60001;48.404;11.738;2022-12-04T07:05:20;95790.91;;;2.91;95.31
31357;BME280;60001;48.404;11.738;2022-12-04T07:06:51;95789.09;;;2.91;94.70
31357;BME280;60001;48.404;11.738;2022-12-04T07:08:23;95792.06;;;2.95;94.72
31357;BME280;60001;48.404;11.738;2022-12-04T07:09:57;95778.81;;;2.96;94.48
31357;BME280;60001;48.404;11.738;2022-12-04T07:11:29;95780.41;;;2.97;94.70
31357;BME280;60001;48.404;11.738;2022-12-04T07:13:00;95785.22;;;3.00;94.55
31357;BME280;60001;48.404;11.738;2022-12-04T07:14:31;95799.63;;;3.03;94.69
31357;BME280;60001;48.404;11.738;2022-12-04T07:16:06;95805.63;;;3.03;94.34
31357;BME280;60001;48.404;11.738;2022-12-04T07:17:38;95799.53;;;2.91;94.83
31357;BME280;60001;48.404;11.738;2022-12-04T07:19:12;95786.94;;;2.88;94.82
31357;BME280;60001;48.404;11.738;2022-12-04T07:20:44;95816.13;;;2.97;95.18
31357;BME280;60001;48.404;11.738;2022-12-04T07:22:15;95828.94;;;2.98;95.15
31357;BME280;60001;48.404;11.738;2022-12-04T07:23:48;95833.75;;;3.01;94.97
31357;BME280;60001;48.404;11.738;2022-12-04T07:25:22;95819.28;;;2.81;95.16
31357;BME280;60001;48.404;11.738;2022-12-04T07:26:54;95820.13;;;2.74;96.02
31357;BME280;60001;48.404;11.738;2022-12-04T07:28:25;95826.25;;;2.87;95.55
31357;BME280;60001;48.404;11.738;2022-12-04T07:29:56;95830.63;;;2.93;95.61
31357;BME280;60001;48.404;11.738;2022-12-04T07:31:28;95838.56;;;2.98;95.73
31357;BME280;60001;48.404;11.738;2022-12-04T07:33:00;95826.13;;;3.00;94.90
31357;BME280;60001;48.404;11.738;2022-12-04T07:34:32;95815.31;;;2.96;95.46
31357;BME280;60001;48.404;11.738;2022-12-04T07:36:08;95824.75;;;2.97;95.46
31357;BME280;60001;48.404;11.738;2022-12-04T07:37:41;95810.25;;;3.01;95.01
31357;BME280;60001;48.404;11.738;2022-12-04T07:39:13;95793.66;;;2.96;95.41
31357;BME280;60001;48.404;11.738;2022-12-04T07:40:46;95801.88;;;2.99;95.23
31357;BME280;60001;48.404;11.738;2022-12-04T07:42:18;95787.16;;;2.87;94.99
31357;BME280;60001;48.404;11.738;2022-12-04T07:43:50;95779.69;;;2.90;95.21
31357;BME280;60001;48.404;11.738;2022-12-04T07:45:22;95785.47;;;2.74;95.15
31357;BME280;60001;48.404;11.738;2022-12-04T07:46:53;95770.31;;;2.83;95.80
31357;BME280;60001;48.404;11.738;2022-12-04T07:48:25;95773.09;;;2.88;95.38
31357;BME280;60001;48.404;11.738;2022-12-04T07:49:57;95768.09;;;2.86;95.07
31357;BME280;60001;48.404;11.738;2022-12-04T07:51:29;95769.63;;;2.94;95.50
31357;BME280;60001;48.404;11.738;2022-12-04T07:53:00;95762.38;;;2.96;95.70
31357;BME280;60001;48.404;11.738;2022-12-04T07:54:32;95763.38;;;2.95;95.41
31357;BME280;60001;48.404;11.738;2022-12-04T07:56:06;95771.22;;;2.95;95.09
31357;BME280;60001;48.404;11.738;2022-12-04T07:57:38;95781.41;;;2.96;95.39
31357;BME280;60001;48.404;11.738;2022-12-04T07:59:10;95789.75;;;2.87;95.42
31357;BME280;60001;48.404;11.738;2022-12-04T08:00:42;95807.94;;;2.93;95.11
31357;BME280;60001;48.404;11.738;2022-12-04T08:02:13;95808.34;;;2.90;95.49
31357;BME280;60001;48.404;11.738;2022-12-04T08:03:48;95810.56;;;2.93;96.08
31357;BME280;60001;48.404;11.738;2022-12-04T08:05:20;95805.28;;;3.00;95.47
31357;BME280;60001;48.404;11.738;2022-12-04T08:06:51;95814.97;;;2.93;95.84
31357;BME280;60001;48.404;11.738;2022-12-04T08:08:22;95809.88;;;2.98;95.29
31357;BME280;60001;48.404;11.738;2022-12-04T08:09:53;95817.53;;;2.99;95.18
31357;BME280;60001;48.404;11.738;2022-12-04T08:11:27;95800.13;;;2.93;95.23
31357;BME280;60001;48.404;11.738;2022-12-04T08:12:59;95798.31;;;2.94;95.48
31357;BME280;60001;48.404;11.738;2022-12-04T08:14:31;95791.56;;;2.86;95.58
31357;BME280;60001;48.404;11.738;2022-12-04T08:16:05;95790.59;;;2.81;95.21
31357;BME280;60001;48.404;11.738;2022-12-04T08:17:38;95793.16;;;2.87;95.69
31357;BME280;60001;48.404;11.738;2022-12-04T08:19:10;95798.09;;;2.95;95.42
31357;BME280;60001;48.404;11.738;2022-12-04T08:20:41;95791.84;;;2.96;95.24
31357;BME280;60001;48.404;11.738;2022-12-04T08:22:13;95795.41;;;3.02;95.93
31357;BME280;60001;48.404;11.738;2022-12-04T08:23:47;95796.59;;;3.06;95.58
31357;BME280;60001;48.404;11.738;2022-12-04T08:25:19;95797.72;;;3.10;95.17